Time;durP1;ratioP1;P1;durP2;ratioP2;P2;SDS_P1;SDS_P2;PMS_P1;PMS_P2;Temp;Humidity;BMP_temperature;BMP_pressure;BME280_temperature;BME280_humidity;BME280_pressure;Samples;Min_cycle;Max_cycle;Signal;HPM_P1;HPM_P2
2023/03/10 00:00:33;;;;;;;5.78;2.60;;;5.90;99.10;;;;;;10432757;28;20133;-64
2023/03/10 00:05:35;;;;;;;6.40;3.08;;;5.90;99.10;;;;;;10442938;28;20267;-63
2023/03/10 00:10:35;;;;;;;5.15;2.45;;;5.90;99.10;;;;;;10438147;28;20057;-63
2023/03/10 00:15:36;;;;;;;4.63;2.25;;;5.90;99.10;;;;;;10442105;28;20104;-64
2023/03/10 00:20:36;;;;;;;4.20;2.10;;;5.90;99.10;;;;;;10436675;28;20461;-64
2023/03/10 00:25:38;;;;;;;4.53;2.58;;;5.90;99.10;;;;;;10430931;28;20283;-64
2023/03/10 00:30:39;;;;;;;5.07;1.90;;;5.90;99.10;;;;;;10430409;28;20028;-63
2023/03/10 00:35:39;;;;;;;3.72;2.25;;;5.90;99.10;;;;;;10440674;28;20044;-64
2023/03/10 00:40:40;;;;;;;3.97;2.45;;;5.90;99.10;;;;;;10428534;28;20034;-64
2023/03/10 00:45:41;;;;;;;5.40;2.40;;;5.90;99.10;;;;;;10433846;28;20060;-63
2023/03/10 00:50:41;;;;;;;4.43;2.40;;;5.90;99.10;;;;;;10430072;28;20057;-63
2023/03/10 00:55:42;;;;;;;4.82;2.50;;;5.90;99.10;;;;;;10438033;28;20039;-63
2023/03/10 01:00:43;;;;;;;4.53;2.28;;;5.90;99.10;;;;;;10435130;28;20067;-63
2023/03/10 01:05:44;;;;;;;5.38;2.83;;;5.90;99.10;;;;;;10437135;28;20199;-63
2023/03/10 01:10:45;;;;;;;4.38;2.50;;;5.90;99.10;;;;;;10435610;28;20017;-63
2023/03/10 01:15:49;;;;;;;3.88;2.25;;;5.90;99.10;;;;;;10425869;28;20017;-65
2023/03/10 01:20:50;;;;;;;6.03;3.00;;;5.90;99.10;;;;;;10424072;28;20017;-63
2023/03/10 01:25:51;;;;;;;4.93;2.33;;;5.90;99.10;;;;;;10432339;28;20031;-64
2023/03/10 01:30:51;;;;;;;3.95;2.40;;;5.90;99.10;;;;;;10433537;28;20023;-64
2023/03/10 01:35:52;;;;;;;4.10;2.47;;;5.90;99.10;;;;;;10424898;28;20605;-64
2023/03/10 01:40:52;;;;;;;5.70;2.88;;;5.90;99.10;;;;;;10436919;28;20025;-64
2023/03/10 01:45:53;;;;;;;5.47;2.45;;;5.80;99.10;;;;;;10429982;28;20086;-64
2023/03/10 01:50:55;;;;;;;4.72;2.67;;;5.80;99.10;;;;;;10424964;28;20043;-62
2023/03/10 01:56:00;;;;;;;4.50;2.40;;;5.80;99.10;;;;;;10439969;28;20025;-64
2023/03/10 02:01:01;;;;;;;4.70;2.60;;;5.80;99.10;;;;;;10432322;28;20534;-64
2023/03/10 02:06:07;;;;;;;5.13;2.40;;;5.80;99.10;;;;;;10436285;28;20084;-63
2023/03/10 02:11:08;;;;;;;4.47;2.15;;;5.80;99.10;;;;;;10432433;28;20290;-65
2023/03/10 02:16:09;;;;;;;4.65;2.30;;;5.80;99.00;;;;;;10436270;28;20543;-63
2023/03/10 02:21:15;;;;;;;4.78;2.05;;;5.80;99.10;;;;;;10422605;28;20021;-64
2023/03/10 02:26:28;;;;;;;3.90;2.53;;;5.80;99.00;;;;;;10430997;28;20025;-63
2023/03/10 02:31:30;;;;;;;4.68;2.30;;;5.80;99.10;;;;;;10428856;28;20025;-63
2023/03/10 02:36:31;;;;;;;4.55;2.38;;;5.80;99.00;;;;;;10428276;28;20120;-64
2023/03/10 02:41:37;;;;;;;4.97;2.30;;;5.80;99.00;;;;;;10438132;28;20388;-65
2023/03/10 02:46:38;;;;;;;4.57;2.30;;;5.80;99.00;;;;;;10424409;28;20063;-63
2023/03/10 02:51:43;;;;;;;3.28;1.95;;;5.80;99.00;;;;;;10432336;28;20117;-63
2023/03/10 02:56:44;;;;;;;2.88;1.95;;;5.80;99.00;;;;;;10436282;28;20345;-64
2023/03/10 03:01:44;;;;;;;3.92;2.30;;;5.80;99.00;;;;;;10447540;28;20027;-63
2023/03/10 03:06:46;;;;;;;4.25;2.10;;;5.80;99.00;;;;;;10444063;28;20025;-63
2023/03/10 03:11:47;;;;;;;2.95;2.03;;;5.80;99.00;;;;;;10446286;28;20032;-63
2023/03/10 03:16:47;;;;;;;4.15;2.17;;;5.80;99.00;;;;;;10439513;28;20029;-63
2023/03/10 03:21:48;;;;;;;4.53;2.03;;;5.80;99.00;;;;;;10440590;28;20415;-63
2023/03/10 03:26:49;;;;;;;3.50;2.00;;;5.80;99.00;;;;;;10438683;28;20281;-63
2023/03/10 03:31:50;;;;;;;2.88;1.83;;;5.80;99.00;;;;;;10440249;28;20032;-64
2023/03/10 03:36:51;;;;;;;3.67;2.20;;;5.80;99.00;;;;;;10436422;28;20151;-64
2023/03/10 03:41:56;;;;;;;3.53;1.88;;;5.80;99.00;;;;;;10434375;28;20168;-64
2023/03/10 03:46:56;;;;;;;3.38;2.10;;;5.80;99.00;;;;;;10438256;28;20118;-64
2023/03/10 03:51:57;;;;;;;4.53;2.00;;;5.80;99.00;;;;;;10442516;28;20295;-64
2023/03/10 03:56:57;;;;;;;5.07;2.50;;;5.80;99.00;;;;;;10432391;28;20032;-63
2023/03/10 04:01:58;;;;;;;3.92;2.30;;;5.80;99.00;;;;;;10436560;28;20061;-63
2023/03/10 04:07:00;;;;;;;3.50;1.75;;;5.80;99.00;;;;;;10442833;28;20029;-64
2023/03/10 04:12:00;;;;;;;3.75;2.47;;;5.80;99.00;;;;;;10444203;28;20036;-64
2023/03/10 04:17:01;;;;;;;4.00;2.45;;;5.80;99.00;;;;;;10433955;28;20020;-63
2023/03/10 04:22:02;;;;;;;4.45;2.35;;;5.80;99.00;;;;;;10435882;28;20028;-65
2023/03/10 04:27:02;;;;;;;3.40;1.88;;;5.80;99.00;;;;;;10437492;28;20028;-64
2023/03/10 04:32:04;;;;;;;5.07;2.20;;;5.80;99.00;;;;;;10446937;28;20420;-64
2023/03/10 04:37:04;;;;;;;3.90;2.50;;;5.80;99.00;;;;;;10441317;28;20534;-64
2023/03/10 04:42:05;;;;;;;3.83;2.20;;;5.80;99.00;;;;;;10439407;28;20082;-64
2023/03/10 04:47:06;;;;;;;4.20;2.38;;;5.80;99.00;;;;;;10431708;28;20471;-64
2023/03/10 04:52:06;;;;;;;3.33;2.00;;;5.80;99.00;;;;;;10448382;28;20031;-64
2023/03/10 04:57:07;;;;;;;4.28;2.33;;;5.80;99.00;;;;;;10439484;28;20021;-63
2023/03/10 05:02:08;;;;;;;2.90;2.00;;;5.80;99.00;;;;;;10436852;28;20497;-64
2023/03/10 05:07:08;;;;;;;3.17;1.88;;;5.80;99.00;;;;;;10435111;28;20484;-63
2023/03/10 05:12:09;;;;;;;3.63;2.28;;;5.70;99.00;;;;;;10432985;28;20025;-63
2023/03/10 05:17:10;;;;;;;3.80;2.25;;;5.70;99.00;;;;;;10449541;28;20045;-63
2023/03/10 05:22:12;;;;;;;3.30;1.75;;;5.70;99.00;;;;;;10430768;28;20103;-63
2023/03/10 05:27:13;;;;;;;2.95;1.90;;;5.70;99.00;;;;;;10435391;28;20022;-64
2023/03/10 05:32:14;;;;;;;4.32;2.17;;;5.70;99.00;;;;;;10441901;28;20113;-65
2023/03/10 05:37:15;;;;;;;2.63;1.83;;;5.70;99.00;;;;;;10439333;28;20032;-64
2023/03/10 05:42:16;;;;;;;4.85;2.17;;;5.70;99.00;;;;;;10450923;28;20595;-64
2023/03/10 05:47:18;;;;;;;4.57;2.10;;;4.70;98.80;;;;;;10424100;28;20021;-64
2023/03/10 05:52:18;;;;;;;3.20;2.10;;;5.70;99.00;;;;;;10438019;28;20051;-63
2023/03/10 05:57:19;;;;;;;3.53;2.08;;;5.70;99.00;;;;;;10434773;28;20029;-63
2023/03/10 06:02:19;;;;;;;3.50;1.90;;;5.70;99.00;;;;;;10446391;28;20017;-63
2023/03/10 06:07:20;;;;;;;4.55;2.28;;;5.70;99.00;;;;;;10436510;28;20400;-64
2023/03/10 06:12:21;;;;;;;3.53;2.15;;;5.70;99.00;;;;;;10437525;28;20027;-63
2023/03/10 06:17:21;;;;;;;3.83;1.85;;;5.70;99.00;;;;;;10425869;28;20029;-64
2023/03/10 06:22:22;;;;;;;4.22;1.95;;;5.70;99.00;;;;;;10433177;28;20505;-64
2023/03/10 06:27:22;;;;;;;3.03;1.77;;;5.70;99.00;;;;;;10430284;28;20423;-63
2023/03/10 06:32:23;;;;;;;4.07;2.05;;;5.70;99.00;;;;;;10447351;28;20030;-64
2023/03/10 06:37:24;;;;;;;4.25;2.20;;;5.70;99.00;;;;;;10443278;28;20036;-64
2023/03/10 06:42:24;;;;;;;3.38;1.92;;;5.70;99.00;;;;;;10448477;28;20029;-64
2023/03/10 06:47:25;;;;;;;3.00;1.65;;;5.70;99.00;;;;;;10444944;28;20028;-64
2023/03/10 06:52:26;;;;;;;2.90;1.80;;;5.70;99.00;;;;;;10443812;28;20025;-63
2023/03/10 06:57:27;;;;;;;3.75;1.67;;;5.70;99.00;;;;;;10447731;28;20476;-63
2023/03/10 07:02:27;;;;;;;3.85;1.85;;;5.70;99.00;;;;;;10427982;28;20205;-63
2023/03/10 07:07:28;;;;;;;3.35;2.22;;;5.70;99.00;;;;;;10442400;28;20040;-63
2023/03/10 07:12:29;;;;;;;3.13;1.83;;;5.70;99.00;;;;;;10447756;28;20017;-64
2023/03/10 07:17:29;;;;;;;3.28;1.73;;;5.70;99.00;;;;;;10439789;28;20029;-63
2023/03/10 07:22:30;;;;;;;3.65;2.13;;;5.70;99.00;;;;;;10440535;28;20029;-64
2023/03/10 07:27:31;;;;;;;3.05;1.75;;;5.70;99.20;;;;;;10434596;28;20033;-63
2023/03/10 07:32:32;;;;;;;2.08;1.42;;;5.70;99.00;;;;;;10437104;28;20031;-64
2023/03/10 07:37:36;;;;;;;2.95;1.70;;;5.70;99.00;;;;;;10445530;28;20400;-63
2023/03/10 07:42:36;;;;;;;3.08;1.88;;;5.70;99.00;;;;;;10443321;28;20095;-63
2023/03/10 07:47:37;;;;;;;3.08;1.58;;;5.70;99.00;;;;;;10444806;28;20087;-64
2023/03/10 07:52:37;;;;;;;3.22;1.80;;;5.70;99.00;;;;;;10442990;28;20443;-64
2023/03/10 07:57:38;;;;;;;3.92;2.08;;;5.70;98.90;;;;;;10433368;28;20052;-63
2023/03/10 08:02:39;;;;;;;4.60;2.20;;;5.70;98.90;;;;;;10439683;28;20081;-64
2023/03/10 08:07:40;;;;;;;3.45;1.85;;;5.70;98.90;;;;;;10449085;28;20035;-64
2023/03/10 08:12:40;;;;;;;3.60;2.15;;;5.70;98.90;;;;;;10433582;28;20408;-63
2023/03/10 08:17:41;;;;;;;3.50;1.77;;;5.70;98.90;;;;;;10441450;28;20284;-64
2023/03/10 08:22:42;;;;;;;3.65;2.03;;;5.70;98.90;;;;;;10442977;28;20043;-64
2023/03/10 08:27:42;;;;;;;4.88;2.05;;;5.70;98.90;;;;;;10432302;28;20056;-64
2023/03/10 08:32:43;;;;;;;4.10;2.25;;;5.80;98.90;;;;;;10449155;28;20082;-63
2023/03/10 08:37:44;;;;;;;4.53;2.47;;;5.80;98.90;;;;;;10438335;28;20599;-64
2023/03/10 08:42:44;;;;;;;4.53;2.50;;;5.80;98.90;;;;;;10436989;28;20021;-63
2023/03/10 08:47:45;;;;;;;3.92;2.15;;;5.80;98.90;;;;;;10444236;28;20516;-63
2023/03/10 08:52:45;;;;;;;3.60;2.25;;;5.80;98.90;;;;;;10439692;28;20112;-63
2023/03/10 08:57:46;;;;;;;5.05;2.38;;;5.80;98.90;;;;;;10442276;28;20100;-64
2023/03/10 09:02:47;;;;;;;4.45;2.35;;;5.80;98.90;;;;;;10437310;28;20432;-64
2023/03/10 09:07:47;;;;;;;5.05;2.30;;;5.80;98.90;;;;;;10436398;28;20098;-63
2023/03/10 09:12:48;;;;;;;4.30;2.65;;;5.80;98.90;;;;;;10444604;28;20554;-63
2023/03/10 09:17:48;;;;;;;3.88;2.13;;;5.80;98.90;;;;;;10440956;28;20023;-64
2023/03/10 09:22:49;;;;;;;4.28;2.45;;;5.80;98.90;;;;;;10434183;28;20483;-63
2023/03/10 09:27:50;;;;;;;5.38;3.15;;;5.80;98.90;;;;;;10442261;28;20112;-64
2023/03/10 09:32:51;;;;;;;5.53;2.45;;;5.80;98.90;;;;;;10434805;28;20480;-64
2023/03/10 09:37:51;;;;;;;4.05;2.38;;;5.80;98.80;;;;;;10434925;28;20021;-64
2023/03/10 09:42:58;;;;;;;5.75;2.90;;;5.90;98.90;;;;;;10427012;28;20044;-64
2023/03/10 09:48:32;;;;;;;5.15;3.05;;;5.90;98.80;;;;;;10438217;28;20049;-64
2023/03/10 09:53:50;;;;;;;4.63;2.50;;;5.90;98.90;;;;;;10413096;28;20056;-64
2023/03/10 09:59:15;;;;;;;4.73;2.73;;;5.90;98.90;;;;;;10439829;28;20436;-63
2023/03/10 10:04:26;;;;;;;5.82;2.63;;;5.90;98.90;;;;;;10437156;28;20291;-64
2023/03/10 10:09:46;;;;;;;5.38;2.83;;;5.90;98.90;;;;;;10433829;28;20425;-63
2023/03/10 10:14:46;;;;;;;6.40;3.20;;;6.80;99.10;;;;;;10433568;28;20408;-63
2023/03/10 10:19:48;;;;;;;5.35;2.92;;;5.80;98.90;;;;;;10425828;28;20032;-63
2023/03/10 10:25:08;;;;;;;5.78;2.97;;;5.90;98.90;;;;;;10430852;28;20281;-64
2023/03/10 10:30:26;;;;;;;4.82;2.33;;;5.90;98.90;;;;;;10427507;28;20287;-64
2023/03/10 10:35:29;;;;;;;6.18;3.40;;;5.90;98.90;;;;;;10442119;28;20024;-63
2023/03/10 10:40:33;;;;;;;6.30;3.22;;;5.90;98.90;;;;;;10430575;28;20033;-64
2023/03/10 10:45:39;;;;;;;5.68;2.85;;;5.90;98.90;;;;;;10431905;28;20027;-64
2023/03/10 10:50:39;;;;;;;5.30;2.97;;;5.90;98.90;;;;;;10435571;28;20480;-63
2023/03/10 10:55:43;;;;;;;5.43;3.28;;;5.90;98.90;;;;;;10425524;28;20021;-64
2023/03/10 11:00:53;;;;;;;5.55;2.83;;;6.00;99.00;;;;;;10445623;28;20120;-63
2023/03/10 11:05:55;;;;;;;4.70;2.65;;;6.00;99.00;;;;;;10430777;28;20096;-62
2023/03/10 11:11:00;;;;;;;5.38;2.92;;;5.90;98.90;;;;;;10425490;28;20030;-63
2023/03/10 11:16:14;;;;;;;6.63;3.00;;;6.00;98.90;;;;;;10441754;28;20108;-66
2023/03/10 11:21:24;;;;;;;5.40;2.97;;;6.00;99.00;;;;;;10438265;28;20029;-62
2023/03/10 11:26:45;;;;;;;5.97;2.70;;;6.00;99.00;;;;;;10442275;28;20032;-65
2023/03/10 11:31:55;;;;;;;5.93;3.00;;;6.00;98.90;;;;;;10432854;28;20021;-66
2023/03/10 11:37:17;;;;;;;5.65;2.92;;;6.00;98.90;;;;;;10444860;28;20255;-65
2023/03/10 11:42:47;;;;;;;5.78;3.22;;;6.00;98.90;;;;;;10441412;28;20021;-66
2023/03/10 11:47:55;;;;;;;5.63;3.20;;;6.10;98.90;;;;;;10432092;28;20416;-64
2023/03/10 11:53:10;;;;;;;5.75;3.33;;;6.10;98.90;;;;;;10444163;28;20017;-64
2023/03/10 11:58:42;;;;;;;5.38;2.90;;;6.10;98.90;;;;;;10443011;28;20056;-63
2023/03/10 12:04:08;;;;;;;5.82;3.38;;;6.10;99.00;;;;;;10442261;28;20066;-64
2023/03/10 12:09:36;;;;;;;6.47;3.20;;;6.10;99.00;;;;;;10441775;28;20029;-65
2023/03/10 12:14:38;;;;;;;5.25;2.90;;;6.10;99.00;;;;;;10411161;28;20060;-63
2023/03/10 12:20:10;;;;;;;7.43;3.20;;;6.10;99.00;;;;;;10443468;28;20040;-64
2023/03/10 12:25:31;;;;;;;5.93;2.90;;;6.10;99.10;;;;;;10428738;28;20100;-65
2023/03/10 12:30:55;;;;;;;6.13;2.65;;;6.10;99.10;;;;;;10441600;28;20043;-63
2023/03/10 12:36:04;;;;;;;6.30;3.25;;;6.10;99.10;;;;;;10436371;28;20017;-64
2023/03/10 12:41:06;;;;;;;6.15;2.95;;;6.10;99.10;;;;;;10427623;28;20221;-65
2023/03/10 12:46:10;;;;;;;5.78;2.85;;;6.10;99.10;;;;;;10428895;28;20100;-63
2023/03/10 12:51:18;;;;;;;5.13;3.13;;;6.10;99.10;;;;;;10440226;28;20021;-63
2023/03/10 12:56:31;;;;;;;5.32;2.75;;;6.10;99.10;;;;;;10443787;28;20024;-64
2023/03/10 13:01:39;;;;;;;5.07;2.72;;;6.10;99.10;;;;;;10449630;28;20028;-64
2023/03/10 13:06:40;;;;;;;7.07;3.42;;;6.10;99.20;;;;;;10442349;28;20028;-64
2023/03/10 13:11:51;;;;;;;5.80;2.95;;;6.10;99.20;;;;;;10434492;28;20131;-63
2023/03/10 13:16:59;;;;;;;5.57;2.85;;;6.10;99.20;;;;;;10429291;28;20514;-64
2023/03/10 13:22:00;;;;;;;5.60;3.10;;;6.10;99.20;;;;;;10437830;28;20037;-64
2023/03/10 13:27:05;;;;;;;5.97;3.17;;;6.10;99.30;;;;;;10409408;28;20043;-64
2023/03/10 13:32:17;;;;;;;5.07;3.13;;;6.10;99.40;;;;;;10415596;28;20029;-63
2023/03/10 13:37:18;;;;;;;6.32;3.10;;;6.10;99.60;;;;;;10418632;28;20029;-64
2023/03/10 13:42:29;;;;;;;5.75;2.72;;;6.10;99.50;;;;;;10434032;28;20085;-64
2023/03/10 13:47:30;;;;;;;4.85;2.58;;;6.10;99.60;;;;;;10434063;28;20021;-63
2023/03/10 13:52:31;;;;;;;4.97;2.80;;;6.10;99.60;;;;;;10424309;28;20040;-63
2023/03/10 13:57:34;;;;;;;4.18;2.50;;;6.10;99.60;;;;;;10429845;28;20098;-62
2023/03/10 14:02:38;;;;;;;5.60;3.17;;;6.10;99.70;;;;;;10410591;28;20054;-64
2023/03/10 14:07:38;;;;;;;4.40;2.78;;;6.10;99.70;;;;;;10398537;28;20095;-62
2023/03/10 14:12:46;;;;;;;5.35;2.80;;;6.10;99.90;;;;;;10400221;28;20068;-63
2023/03/10 14:17:50;;;;;;;4.93;2.78;;;6.20;99.90;;;;;;10397498;28;20497;-64
2023/03/10 14:22:50;;;;;;;6.72;3.25;;;6.20;99.90;;;;;;10397047;28;20066;-63
2023/03/10 14:27:58;;;;;;;8.60;4.03;;;5.90;99.90;;;;;;10400454;28;20508;-63
2023/03/10 14:33:00;;;;;;;8.65;3.85;;;6.00;99.90;;;;;;10398511;28;20193;-63
2023/03/10 14:38:00;;;;;;;6.57;3.60;;;6.20;99.90;;;;;;10399787;28;20116;-62
2023/03/10 14:43:01;;;;;;;6.28;3.45;;;6.30;99.90;;;;;;10400356;28;20036;-62
2023/03/10 14:48:16;;;;;;;8.65;3.78;;;6.30;99.90;;;;;;10428577;28;20340;-62
2023/03/10 14:53:20;;;;;;;8.02;3.65;;;6.20;99.90;;;;;;10430149;28;20144;-63
2023/03/10 14:58:24;;;;;;;9.30;4.32;;;6.20;99.90;;;;;;10416711;28;20080;-62
2023/03/10 15:03:24;;;;;;;5.68;3.03;;;6.20;99.90;;;;;;10422391;28;20032;-64
2023/03/10 15:08:25;;;;;;;7.53;3.80;;;6.20;99.90;;;;;;10435001;28;20032;-63
2023/03/10 15:13:26;;;;;;;6.50;3.22;;;6.50;99.90;;;;;;10434049;28;20041;-63
2023/03/10 15:18:26;;;;;;;6.60;3.65;;;6.20;99.90;;;;;;10429722;28;20028;-63
2023/03/10 15:23:28;;;;;;;7.13;3.58;;;6.10;99.90;;;;;;10408239;28;20028;-63
2023/03/10 15:28:29;;;;;;;6.18;3.42;;;6.10;99.90;;;;;;10429108;28;20040;-62
2023/03/10 15:33:29;;;;;;;7.60;3.50;;;6.10;99.90;;;;;;10425851;28;20017;-63
2023/03/10 15:38:30;;;;;;;7.00;3.80;;;6.10;99.90;;;;;;10409848;28;20554;-62
2023/03/10 15:43:30;;;;;;;7.72;3.85;;;7.30;99.90;;;;;;10407497;28;20087;-63
2023/03/10 15:48:32;;;;;;;6.63;3.03;;;6.10;99.90;;;;;;10412674;28;20172;-63
2023/03/10 15:53:33;;;;;;;7.43;3.22;;;6.10;99.90;;;;;;10405912;28;20307;-63
2023/03/10 15:58:34;;;;;;;6.97;3.13;;;6.00;99.90;;;;;;10408168;28;20044;-63
2023/03/10 16:03:36;;;;;;;5.13;2.83;;;6.00;99.90;;;;;;10415232;28;20504;-63
2023/03/10 16:08:37;;;;;;;5.60;3.13;;;6.00;99.90;;;;;;10427229;28;20040;-63
2023/03/10 16:13:38;;;;;;;5.15;2.88;;;5.90;99.90;;;;;;10430913;28;20424;-63
2023/03/10 16:18:38;;;;;;;5.97;3.35;;;5.90;99.90;;;;;;10436451;28;20036;-63
2023/03/10 16:23:39;;;;;;;4.68;2.58;;;5.90;99.90;;;;;;10430731;28;20048;-63
2023/03/10 16:28:43;;;;;;;4.72;2.75;;;5.90;99.90;;;;;;10435270;28;20033;-63
2023/03/10 16:33:45;;;;;;;6.40;3.13;;;5.80;99.90;;;;;;10428107;28;20105;-63
2023/03/10 16:38:46;;;;;;;6.05;2.95;;;5.80;99.90;;;;;;10437877;28;20056;-64
2023/03/10 16:43:47;;;;;;;3.92;2.15;;;5.80;99.90;;;;;;10434861;28;20021;-62
2023/03/10 16:48:47;;;;;;;5.47;2.78;;;5.80;99.90;;;;;;10431977;28;20056;-64
2023/03/10 16:53:49;;;;;;;5.28;2.55;;;5.80;99.90;;;;;;10427895;28;20037;-64
2023/03/10 16:58:51;;;;;;;5.22;2.88;;;5.80;99.90;;;;;;10433002;28;20248;-62
2023/03/10 17:03:53;;;;;;;4.30;2.40;;;5.80;99.90;;;;;;10432431;28;20120;-63
2023/03/10 17:08:54;;;;;;;4.68;2.45;;;5.80;99.90;;;;;;10433968;28;20106;-64
2023/03/10 17:13:58;;;;;;;4.93;2.60;;;5.90;99.90;;;;;;10434396;28;20032;-63
2023/03/10 17:19:01;;;;;;;5.15;2.28;;;5.90;99.90;;;;;;10426814;28;20494;-63
2023/03/10 17:24:03;;;;;;;5.40;2.53;;;5.80;99.90;;;;;;10427231;28;20079;-63
2023/03/10 17:29:04;;;;;;;4.93;2.47;;;5.80;99.90;;;;;;10425198;28;20385;-63
2023/03/10 17:34:11;;;;;;;5.70;2.80;;;5.80;99.90;;;;;;10429301;28;20021;-64
2023/03/10 17:39:21;;;;;;;5.18;2.50;;;5.80;99.90;;;;;;10425922;28;20481;-64
2023/03/10 17:44:22;;;;;;;5.20;2.20;;;5.80;99.90;;;;;;10434336;28;20013;-63
2023/03/10 17:49:22;;;;;;;5.45;2.40;;;5.80;99.90;;;;;;10427607;28;20039;-62
2023/03/10 17:54:23;;;;;;;5.05;2.50;;;5.80;99.90;;;;;;10433211;28;20029;-64
2023/03/10 17:59:24;;;;;;;4.47;2.05;;;5.80;99.90;;;;;;10424636;28;20033;-64
2023/03/10 18:04:28;;;;;;;4.72;2.22;;;5.70;99.90;;;;;;10424192;28;20318;-63
2023/03/10 18:09:29;;;;;;;5.03;2.38;;;5.70;99.90;;;;;;10425243;28;20033;-62
2023/03/10 18:14:29;;;;;;;3.80;2.00;;;5.80;99.90;;;;;;10429275;28;20449;-64
2023/03/10 18:19:31;;;;;;;3.95;2.40;;;5.70;99.90;;;;;;10423401;28;20028;-63
2023/03/10 18:24:32;;;;;;;5.43;2.13;;;5.70;99.90;;;;;;10426261;28;20276;-64
2023/03/10 18:29:32;;;;;;;5.03;2.10;;;5.70;99.90;;;;;;10422741;28;20066;-63
2023/03/10 18:34:33;;;;;;;4.75;1.65;;;5.70;99.90;;;;;;10423615;28;20037;-63
2023/03/10 18:39:33;;;;;;;4.47;1.95;;;5.70;99.90;;;;;;10424407;28;20033;-64
2023/03/10 18:44:34;;;;;;;3.97;2.10;;;5.70;99.90;;;;;;10432782;28;20048;-63
2023/03/10 18:49:34;;;;;;;3.85;1.85;;;5.70;99.90;;;;;;10432238;28;20124;-63
2023/03/10 18:54:35;;;;;;;4.10;1.80;;;5.70;99.90;;;;;;10431582;28;20037;-63
2023/03/10 18:59:36;;;;;;;2.95;1.63;;;5.70;99.90;;;;;;10430182;28;20047;-62
2023/03/10 19:04:36;;;;;;;4.55;2.08;;;5.70;99.90;;;;;;10429382;28;20048;-63
2023/03/10 19:09:37;;;;;;;2.67;1.42;;;5.70;99.90;;;;;;10422294;28;20033;-64
2023/03/10 19:14:38;;;;;;;2.58;1.50;;;5.70;99.90;;;;;;10423608;28;20029;-64
2023/03/10 19:19:38;;;;;;;2.22;1.70;;;5.60;99.90;;;;;;10425756;28;20029;-64
2023/03/10 19:24:39;;;;;;;3.83;1.55;;;5.60;99.90;;;;;;10428910;28;20665;-63
2023/03/10 19:29:39;;;;;;;3.97;1.70;;;5.70;99.90;;;;;;10433111;28;20571;-64
2023/03/10 19:34:40;;;;;;;2.72;1.42;;;5.60;99.90;;;;;;10428484;28;20381;-64
2023/03/10 19:39:41;;;;;;;4.63;1.60;;;5.60;99.90;;;;;;10436229;28;20264;-64
2023/03/10 19:44:41;;;;;;;2.47;1.40;;;5.60;99.90;;;;;;10437304;28;20497;-63
2023/03/10 19:49:42;;;;;;;2.60;1.65;;;5.60;99.90;;;;;;10440436;28;20029;-63
2023/03/10 19:54:43;;;;;;;4.20;1.83;;;5.60;99.90;;;;;;10444654;28;20021;-64
2023/03/10 19:59:43;;;;;;;2.65;1.42;;;5.60;99.90;;;;;;10436236;28;20021;-63
2023/03/10 20:04:46;;;;;;;2.00;1.40;;;5.60;99.90;;;;;;10436808;28;20028;-63
2023/03/10 20:09:48;;;;;;;2.20;1.15;;;5.60;99.90;;;;;;10435429;28;20025;-63
2023/03/10 20:14:48;;;;;;;2.38;1.30;;;5.60;99.90;;;;;;10431392;28;20028;-64
2023/03/10 20:19:49;;;;;;;2.22;1.27;;;5.60;99.90;;;;;;10428435;28;20037;-63
2023/03/10 20:24:49;;;;;;;2.90;1.20;;;5.60;99.90;;;;;;10430068;28;20052;-63
2023/03/10 20:29:50;;;;;;;2.20;1.08;;;5.60;99.90;;;;;;10435272;28;20029;-62
2023/03/10 20:34:51;;;;;;;1.77;1.10;;;5.60;99.90;;;;;;10434884;28;20017;-64
2023/03/10 20:39:51;;;;;;;2.28;1.48;;;5.60;99.90;;;;;;10432291;28;20294;-63
2023/03/10 20:44:52;;;;;;;2.35;1.20;;;5.60;99.90;;;;;;10427275;28;20043;-63
2023/03/10 20:49:53;;;;;;;2.20;1.10;;;5.60;99.90;;;;;;10435138;28;20024;-63
2023/03/10 20:54:54;;;;;;;2.60;1.20;;;5.60;99.90;;;;;;10429271;28;20098;-64
2023/03/10 20:59:55;;;;;;;1.88;1.05;;;5.60;99.90;;;;;;10432234;28;20098;-63
2023/03/10 21:04:55;;;;;;;2.40;1.10;;;5.60;99.90;;;;;;10425607;28;20079;-62
2023/03/10 21:09:56;;;;;;;4.28;1.30;;;5.60;99.90;;;;;;10425434;28;20031;-63
2023/03/10 21:14:57;;;;;;;1.42;0.90;;;5.50;99.90;;;;;;10433401;28;20036;-63
2023/03/10 21:19:58;;;;;;;1.77;1.17;;;5.50;99.90;;;;;;10433514;28;20036;-63
2023/03/10 21:24:59;;;;;;;1.95;0.90;;;5.60;99.90;;;;;;10432223;28;20239;-63
2023/03/10 21:30:04;;;;;;;1.63;0.98;;;5.50;99.90;;;;;;10431543;28;20035;-63
2023/03/10 21:35:05;;;;;;;1.67;0.98;;;5.50;99.90;;;;;;10429902;28;20037;-63
2023/03/10 21:40:08;;;;;;;1.55;1.02;;;5.50;99.90;;;;;;10426389;28;20524;-64
2023/03/10 21:45:13;;;;;;;2.00;1.13;;;5.50;99.90;;;;;;10425598;28;20020;-64
2023/03/10 21:50:14;;;;;;;2.15;0.90;;;5.50;99.90;;;;;;10435031;28;20056;-62
2023/03/10 21:55:22;;;;;;;1.98;0.90;;;5.50;99.90;;;;;;10432166;28;20036;-63
2023/03/10 22:00:23;;;;;;;1.23;0.80;;;5.50;99.90;;;;;;10429132;28;20090;-63
2023/03/10 22:05:24;;;;;;;2.78;1.15;;;5.50;99.90;;;;;;10429872;28;20009;-63
2023/03/10 22:10:24;;;;;;;1.73;1.00;;;5.50;99.90;;;;;;10431782;28;20423;-63
2023/03/10 22:15:26;;;;;;;1.45;0.90;;;5.50;99.90;;;;;;10430061;28;20041;-62
2023/03/10 22:20:27;;;;;;;1.40;0.90;;;5.50;99.90;;;;;;10432571;28;20696;-63
2023/03/10 22:25:27;;;;;;;2.13;0.90;;;5.50;99.90;;;;;;10428173;28;20167;-62
2023/03/10 22:30:28;;;;;;;1.85;1.13;;;5.50;99.90;;;;;;10431295;28;20017;-63
2023/03/10 22:35:29;;;;;;;2.30;0.90;;;5.50;99.90;;;;;;10430341;28;20405;-62
2023/03/10 22:40:30;;;;;;;1.23;0.70;;;5.50;99.90;;;;;;10424784;28;20029;-64
2023/03/10 22:45:31;;;;;;;1.55;0.75;;;5.40;99.90;;;;;;10423938;28;20087;-62
2023/03/10 22:50:35;;;;;;;1.20;0.80;;;5.40;99.90;;;;;;10424254;28;20171;-62
2023/03/10 22:55:36;;;;;;;1.05;0.80;;;5.40;99.90;;;;;;10427234;28;20090;-63
2023/03/10 23:00:38;;;;;;;1.38;0.80;;;5.40;99.90;;;;;;10424367;28;20362;-62
2023/03/10 23:05:39;;;;;;;1.10;0.70;;;6.40;99.90;;;;;;10426958;28;20017;-63
2023/03/10 23:10:40;;;;;;;1.52;0.65;;;5.40;99.90;;;;;;10427664;28;20029;-63
2023/03/10 23:15:41;;;;;;;1.60;0.75;;;5.40;99.90;;;;;;10439904;28;20075;-63
2023/03/10 23:20:47;;;;;;;2.05;1.00;;;5.40;99.90;;;;;;10435090;28;20017;-63
2023/03/10 23:25:52;;;;;;;1.02;0.70;;;5.40;99.90;;;;;;10428641;28;20025;-63
2023/03/10 23:30:53;;;;;;;1.65;0.80;;;5.40;99.90;;;;;;10439953;28;20013;-64
2023/03/10 23:35:53;;;;;;;1.40;0.90;;;5.40;99.90;;;;;;10433639;28;20025;-62
2023/03/10 23:40:54;;;;;;;1.42;0.82;;;5.40;99.90;;;;;;10436356;28;20025;-64
2023/03/10 23:45:55;;;;;;;1.20;0.80;;;5.40;99.90;;;;;;10435858;28;20590;-63
2023/03/10 23:50:56;;;;;;;1.40;0.80;;;5.40;99.90;;;;;;10434428;28;20151;-62
2023/03/10 23:55:58;;;;;;;1.70;0.70;;;5.40;99.90;;;;;;10435650;28;20606;-64
